VLG2800 LEBB-EGPH
Flight info
| Callsign | VLG2800 |
|---|---|
| Flight time | N/A |
| Altitude | 38000 |
| Route | BISKA P87 BELEN DCT DIDIG DCT MOKOR DCT TERPO DCT RINSO DCT EKRAS DCT AKIKI DCT GARMI UN867 AVANT UM184 HEMEL T420 TNT UN57 POL UN601 RIBEL DCT ABEVI DCT INPIP |
| Aircraft | A320/M-SDE3FGHIRWY/LB1 |
Departure
| Time | 2026-05-04 08:31 |
|---|---|
| Airport | Bilbao Airport (LEBB) |
Arrival
| Time | N/A |
|---|---|
| Airport | Edinburgh Airport (EGPH) |
| Time | Latitude | Longitude | Altitude | Speed | Heading |
|---|---|---|---|---|---|
| 2026-05-04 07:50 | 43.30408 | -2.90576 | 124 ft | 0 kts | 27° |
| 2026-05-04 07:57 | 43.30407 | -2.90576 | 127 ft | 0 kts | 27° |
| 2026-05-04 08:20 | 43.30406 | -2.90577 | 127 ft | 2 kts | 27° |
| 2026-05-04 08:21 | 43.30384 | -2.90594 | 122 ft | 4 kts | 34° |
| 2026-05-04 08:21 | 43.30364 | -2.90617 | 122 ft | 4 kts | 51° |
| 2026-05-04 08:21 | 43.30353 | -2.90646 | 123 ft | 4 kts | 101° |
| 2026-05-04 08:21 | 43.30356 | -2.90660 | 124 ft | 1 kts | 117° |
| 2026-05-04 08:22 | 43.30357 | -2.90661 | 124 ft | 1 kts | 117° |
| 2026-05-04 08:26 | 43.30355 | -2.90657 | 123 ft | 2 kts | 117° |
| 2026-05-04 08:27 | 43.30039 | -2.90358 | 127 ft | 18 kts | 116° |
| 2026-05-04 08:28 | 43.29982 | -2.90202 | 125 ft | 18 kts | 116° |
| 2026-05-04 08:28 | 43.29925 | -2.90049 | 125 ft | 18 kts | 117° |
| 2026-05-04 08:28 | 43.29870 | -2.89899 | 124 ft | 17 kts | 116° |
| 2026-05-04 08:28 | 43.29817 | -2.89753 | 124 ft | 16 kts | 116° |
| 2026-05-04 08:29 | 43.29774 | -2.89636 | 126 ft | 13 kts | 116° |
| 2026-05-04 08:29 | 43.29705 | -2.89595 | 128 ft | 12 kts | 207° |
| 2026-05-04 08:29 | 43.29639 | -2.89665 | 124 ft | 12 kts | 218° |
| 2026-05-04 08:31 | 43.31824 | -2.95686 | 2524 ft | 184 kts | 297° |
| 2026-05-04 08:33 | 43.41858 | -2.97870 | 7483 ft | 279 kts | 22° |
| 2026-05-04 08:33 | 43.43644 | -2.96754 | 8271 ft | 285 kts | 22° |
| 2026-05-04 08:35 | 43.57218 | -2.89862 | 13533 ft | 315 kts | 1° |
| 2026-05-04 08:35 | 43.59423 | -2.89700 | 14187 ft | 320 kts | 1° |
| 2026-05-04 08:35 | 43.61655 | -2.89422 | 14798 ft | 325 kts | 7° |
| 2026-05-04 08:35 | 43.63960 | -2.88909 | 14988 ft | 346 kts | 8° |
| 2026-05-04 08:37 | 43.79472 | -2.84873 | 17905 ft | 393 kts | 10° |
| 2026-05-04 08:37 | 43.82174 | -2.84178 | 18482 ft | 397 kts | 10° |
| 2026-05-04 08:37 | 43.84904 | -2.83480 | 18993 ft | 401 kts | 10° |
| 2026-05-04 08:38 | 43.87663 | -2.82777 | 19501 ft | 405 kts | 10° |
| 2026-05-04 08:38 | 43.90451 | -2.82069 | 20000 ft | 409 kts | 10° |
| 2026-05-04 08:38 | 43.93266 | -2.81354 | 20485 ft | 413 kts | 10° |
| 2026-05-04 08:40 | 44.13625 | -2.76123 | 23752 ft | 436 kts | 10° |
| 2026-05-04 08:40 | 44.16624 | -2.75350 | 24125 ft | 440 kts | 10° |
| 2026-05-04 08:40 | 44.19644 | -2.74572 | 24502 ft | 443 kts | 11° |
| 2026-05-04 08:41 | 44.22683 | -2.73786 | 24908 ft | 445 kts | 10° |
| 2026-05-04 08:41 | 44.25739 | -2.72994 | 25276 ft | 448 kts | 10° |
| 2026-05-04 08:41 | 44.28817 | -2.72194 | 25635 ft | 452 kts | 10° |
| 2026-05-04 08:41 | 44.31918 | -2.71390 | 25987 ft | 455 kts | 10° |
| 2026-05-04 08:42 | 44.35040 | -2.70575 | 26328 ft | 458 kts | 10° |
| 2026-05-04 08:42 | 44.38184 | -2.69752 | 26677 ft | 461 kts | 10° |
| 2026-05-04 08:42 | 44.41345 | -2.68928 | 26999 ft | 465 kts | 10° |
| 2026-05-04 08:42 | 44.44541 | -2.68098 | 27319 ft | 469 kts | 10° |
| 2026-05-04 08:43 | 44.47760 | -2.67263 | 27660 ft | 472 kts | 10° |
| 2026-05-04 08:43 | 44.51001 | -2.66420 | 27977 ft | 475 kts | 9° |
| 2026-05-04 08:43 | 44.54261 | -2.65569 | 28328 ft | 478 kts | 9° |
| 2026-05-04 08:43 | 44.57541 | -2.64712 | 28677 ft | 481 kts | 9° |
| 2026-05-04 08:44 | 44.60843 | -2.63851 | 29029 ft | 484 kts | 9° |
| 2026-05-04 08:44 | 44.64162 | -2.62982 | 29374 ft | 487 kts | 9° |
| 2026-05-04 08:46 | 44.87558 | -2.56796 | 32294 ft | 485 kts | 9° |
| 2026-05-04 08:46 | 44.90867 | -2.55927 | 32786 ft | 483 kts | 9° |
| 2026-05-04 08:46 | 44.94154 | -2.55060 | 33279 ft | 481 kts | 9° |
| 2026-05-04 08:46 | 44.97434 | -2.54191 | 33786 ft | 478 kts | 9° |
| 2026-05-04 08:47 | 45.00699 | -2.53326 | 34231 ft | 476 kts | 9° |
| 2026-05-04 08:47 | 45.03953 | -2.52461 | 34594 ft | 475 kts | 9° |
| 2026-05-04 08:47 | 45.07201 | -2.51598 | 34938 ft | 475 kts | 9° |
| 2026-05-04 08:47 | 45.10446 | -2.50732 | 35263 ft | 474 kts | 9° |
| 2026-05-04 08:48 | 45.13687 | -2.49864 | 35586 ft | 474 kts | 9° |
| 2026-05-04 08:48 | 45.16927 | -2.48996 | 35915 ft | 474 kts | 9° |
| 2026-05-04 08:48 | 45.20168 | -2.48129 | 36183 ft | 474 kts | 9° |
| 2026-05-04 08:48 | 45.23411 | -2.47260 | 36470 ft | 474 kts | 9° |
| 2026-05-04 08:49 | 45.26652 | -2.46391 | 36773 ft | 474 kts | 9° |
| 2026-05-04 08:50 | 45.46048 | -2.41171 | 37997 ft | 477 kts | 9° |
| 2026-05-04 08:50 | 45.49311 | -2.40284 | 37997 ft | 477 kts | 9° |
| 2026-05-04 08:51 | 45.55841 | -2.38505 | 38011 ft | 478 kts | 9° |
| 2026-05-04 08:51 | 45.62367 | -2.36729 | 37995 ft | 477 kts | 9° |
| 2026-05-04 08:52 | 45.68883 | -2.34960 | 37996 ft | 477 kts | 9° |
| 2026-05-04 08:52 | 45.75414 | -2.33170 | 37991 ft | 478 kts | 10° |
| 2026-05-04 08:54 | 46.01512 | -2.25649 | 38020 ft | 479 kts | 14° |
| 2026-05-04 08:55 | 46.07869 | -2.23024 | 38015 ft | 479 kts | 16° |
| 2026-05-04 08:55 | 46.14260 | -2.20346 | 38014 ft | 479 kts | 15° |
| 2026-05-04 09:01 | 46.81686 | -1.93534 | 37996 ft | 480 kts | 15° |
| 2026-05-04 09:01 | 46.88121 | -1.90943 | 38001 ft | 480 kts | 15° |
| 2026-05-04 09:02 | 46.94569 | -1.88344 | 38002 ft | 480 kts | 15° |
| 2026-05-04 09:02 | 47.01007 | -1.85723 | 38011 ft | 480 kts | 15° |
| 2026-05-04 09:03 | 47.07450 | -1.83097 | 38008 ft | 480 kts | 15° |
| 2026-05-04 09:03 | 47.13889 | -1.80474 | 38017 ft | 480 kts | 15° |
| 2026-05-04 09:04 | 47.20331 | -1.77855 | 38025 ft | 480 kts | 14° |
| 2026-05-04 09:04 | 47.26731 | -1.75240 | 38023 ft | 480 kts | 15° |
| 2026-05-04 09:05 | 47.33192 | -1.72861 | 38021 ft | 478 kts | 5° |
| 2026-05-04 09:05 | 47.39805 | -1.71890 | 38017 ft | 477 kts | 4° |
| 2026-05-04 09:06 | 47.46414 | -1.70949 | 38013 ft | 477 kts | 4° |
| 2026-05-04 09:08 | 47.72840 | -1.67163 | 38004 ft | 475 kts | 4° |
| 2026-05-04 09:08 | 47.79414 | -1.66219 | 38017 ft | 475 kts | 4° |
| 2026-05-04 09:09 | 47.85946 | -1.65279 | 38021 ft | 474 kts | 4° |
| 2026-05-04 09:09 | 47.92514 | -1.64321 | 38022 ft | 474 kts | 5° |
| 2026-05-04 09:10 | 47.99077 | -1.63368 | 38024 ft | 474 kts | 5° |
| 2026-05-04 09:10 | 48.05635 | -1.62421 | 38027 ft | 474 kts | 4° |
| 2026-05-04 09:11 | 48.12197 | -1.61457 | 38025 ft | 474 kts | 5° |
| 2026-05-04 09:11 | 48.18760 | -1.60494 | 38024 ft | 474 kts | 4° |
| 2026-05-04 09:12 | 48.25319 | -1.59534 | 38028 ft | 473 kts | 5° |
| 2026-05-04 09:14 | 48.51470 | -1.55677 | 38016 ft | 471 kts | 5° |
| 2026-05-04 09:14 | 48.57999 | -1.54718 | 38025 ft | 471 kts | 5° |
| 2026-05-04 09:15 | 48.64521 | -1.53743 | 38023 ft | 471 kts | 5° |
| 2026-05-04 09:15 | 48.71011 | -1.52760 | 38021 ft | 472 kts | 5° |
| 2026-05-04 09:17 | 49.00441 | -1.48621 | 38026 ft | 472 kts | 3° |
| 2026-05-04 09:18 | 49.06988 | -1.47912 | 38025 ft | 471 kts | 4° |
| 2026-05-04 09:18 | 49.13530 | -1.47156 | 38029 ft | 471 kts | 4° |
| 2026-05-04 09:19 | 49.20025 | -1.46376 | 38032 ft | 471 kts | 4° |
| 2026-05-04 09:19 | 49.25495 | -1.45713 | 38032 ft | 471 kts | 4° |
| 2026-05-04 09:20 | 49.33089 | -1.44794 | 38037 ft | 471 kts | 4° |
| 2026-05-04 09:20 | 49.38556 | -1.44148 | 38041 ft | 470 kts | 4° |
| 2026-05-04 09:21 | 49.45083 | -1.43375 | 38039 ft | 470 kts | 4° |
| 2026-05-04 09:21 | 49.51564 | -1.42598 | 38047 ft | 470 kts | 4° |
| 2026-05-04 09:22 | 49.58082 | -1.41799 | 38052 ft | 469 kts | 4° |
| 2026-05-04 09:22 | 49.64594 | -1.41098 | 38060 ft | 469 kts | 2° |
| 2026-05-04 09:23 | 49.71101 | -1.40570 | 38050 ft | 468 kts | 2° |
| 2026-05-04 09:23 | 49.77598 | -1.40052 | 38055 ft | 467 kts | 2° |
| 2026-05-04 09:25 | 50.03457 | -1.37204 | 38041 ft | 465 kts | 9° |
| 2026-05-04 09:26 | 50.09845 | -1.35612 | 38026 ft | 465 kts | 8° |
| 2026-05-04 09:26 | 50.16234 | -1.34014 | 38017 ft | 466 kts | 8° |
| 2026-05-04 09:27 | 50.22638 | -1.32425 | 38027 ft | 466 kts | 8° |
| 2026-05-04 09:27 | 50.29040 | -1.30823 | 38032 ft | 466 kts | 8° |
| 2026-05-04 09:28 | 50.35451 | -1.29215 | 38027 ft | 466 kts | 9° |
| 2026-05-04 09:28 | 50.41857 | -1.27601 | 38032 ft | 466 kts | 9° |
| 2026-05-04 09:29 | 50.48241 | -1.25810 | 38039 ft | 466 kts | 15° |
| 2026-05-04 09:29 | 50.54124 | -1.21675 | 38037 ft | 464 kts | 33° |
| 2026-05-04 09:30 | 50.59570 | -1.16251 | 38043 ft | 464 kts | 33° |
| 2026-05-04 09:30 | 50.65026 | -1.10827 | 38035 ft | 463 kts | 33° |
| 2026-05-04 09:31 | 50.70474 | -1.05399 | 38044 ft | 463 kts | 33° |
| 2026-05-04 09:31 | 50.75909 | -0.99969 | 38040 ft | 462 kts | 33° |
| 2026-05-04 09:32 | 50.81381 | -0.94613 | 38044 ft | 462 kts | 27° |
| 2026-05-04 09:34 | 51.05761 | -0.81547 | 38036 ft | 463 kts | 18° |
| 2026-05-04 09:34 | 51.11890 | -0.78350 | 38039 ft | 463 kts | 18° |
| 2026-05-04 09:35 | 51.17970 | -0.75176 | 38044 ft | 463 kts | 18° |
| 2026-05-04 09:35 | 51.24094 | -0.71967 | 38044 ft | 463 kts | 18° |
| 2026-05-04 09:37 | 51.48581 | -0.59030 | 38052 ft | 463 kts | 18° |
| 2026-05-04 09:38 | 51.54684 | -0.55793 | 38049 ft | 463 kts | 18° |
| 2026-05-04 09:38 | 51.60778 | -0.52552 | 38048 ft | 463 kts | 18° |
| 2026-05-04 09:39 | 51.66891 | -0.49278 | 38054 ft | 462 kts | 18° |
| 2026-05-04 09:39 | 51.72994 | -0.45996 | 38101 ft | 462 kts | 17° |
| 2026-05-04 09:40 | 51.76121 | -0.44865 | 38095 ft | 461 kts | 6° |
| 2026-05-04 09:40 | 51.78880 | -0.44652 | 38050 ft | 460 kts | 356° |
| 2026-05-04 09:40 | 51.85097 | -0.46749 | 38051 ft | 457 kts | 336° |